createdAt,value
2023-02-11T00:01:42.417Z,2.20
2023-02-11T00:04:11.186Z,2.10
2023-02-11T00:06:40.402Z,2.20
2023-02-11T00:09:09.298Z,2.10
2023-02-11T00:11:38.147Z,2.10
2023-02-11T00:14:09.497Z,2.10
2023-02-11T00:16:38.434Z,2.10
2023-02-11T00:19:08.954Z,2.10
2023-02-11T00:21:37.919Z,2.10
2023-02-11T00:24:07.542Z,2.10
2023-02-11T00:26:37.704Z,2.10
2023-02-11T00:29:07.042Z,2.20
2023-02-11T00:31:36.580Z,2.20
2023-02-11T00:34:05.495Z,2.10
2023-02-11T00:36:35.655Z,2.10
2023-02-11T00:39:04.876Z,2.10
2023-02-11T00:41:33.968Z,2.10
2023-02-11T00:44:03.923Z,2.10
2023-02-11T00:46:32.736Z,2.00
2023-02-11T00:49:01.780Z,2.00
2023-02-11T00:51:30.690Z,2.10
2023-02-11T00:54:00.904Z,2.00
2023-02-11T00:56:29.731Z,2.00
2023-02-11T00:58:58.992Z,2.10
2023-02-11T01:01:27.854Z,2.00
2023-02-11T01:03:56.975Z,2.10
2023-02-11T01:06:25.846Z,2.00
2023-02-11T01:08:54.908Z,2.00
2023-02-11T01:11:25.229Z,2.00
2023-02-11T01:13:54.194Z,2.10
2023-02-11T01:16:23.425Z,2.10
2023-02-11T01:18:52.187Z,2.00
2023-02-11T01:21:21.058Z,2.00
2023-02-11T01:23:49.832Z,2.00
2023-02-11T01:26:20.472Z,1.90
2023-02-11T01:28:50.688Z,2.00
2023-02-11T01:31:19.583Z,1.90
2023-02-11T01:33:49.220Z,1.90
2023-02-11T01:36:17.962Z,1.90
2023-02-11T01:38:46.682Z,1.90
2023-02-11T01:41:16.240Z,1.90
2023-02-11T01:43:48.047Z,1.90
2023-02-11T01:46:31.455Z,1.90
2023-02-11T01:49:07.862Z,1.80
2023-02-11T01:51:45.118Z,1.80
2023-02-11T01:54:37.751Z,1.80
2023-02-11T01:57:25.084Z,1.80
2023-02-11T02:00:07.644Z,1.80
2023-02-11T02:02:47.073Z,1.80
2023-02-11T02:05:30.231Z,1.80
2023-02-11T02:08:09.654Z,1.70
2023-02-11T02:10:43.723Z,1.70
2023-02-11T02:13:13.173Z,1.70
2023-02-11T02:15:47.883Z,1.70
2023-02-11T02:18:40.760Z,1.70
2023-02-11T02:22:20.765Z,1.70
2023-02-11T02:25:24.004Z,1.60
2023-02-11T02:28:09.326Z,1.60
2023-02-11T02:31:14.981Z,1.60
2023-02-11T02:33:55.962Z,1.60
2023-02-11T02:36:33.830Z,1.50
2023-02-11T02:39:10.749Z,1.50
2023-02-11T02:41:41.278Z,1.60
2023-02-11T02:44:10.484Z,1.60
2023-02-11T02:46:39.441Z,1.60
2023-02-11T02:49:15.225Z,1.50
2023-02-11T02:52:23.350Z,1.50
2023-02-11T02:55:23.414Z,1.50
2023-02-11T02:58:31.711Z,1.50
2023-02-11T03:01:13.316Z,1.40
2023-02-11T03:03:56.088Z,1.40
2023-02-11T03:06:35.587Z,1.30
2023-02-11T03:09:14.044Z,1.30
2023-02-11T03:11:43.109Z,1.30
2023-02-11T03:14:19.804Z,1.30
2023-02-11T03:16:51.094Z,1.30
2023-02-11T03:19:25.370Z,1.30
2023-02-11T03:21:57.549Z,1.20
2023-02-11T03:24:32.378Z,1.20
2023-02-11T03:27:10.593Z,1.20
2023-02-11T03:29:51.748Z,1.10
2023-02-11T03:32:28.437Z,1.10
2023-02-11T03:35:03.282Z,1.10
2023-02-11T03:37:41.621Z,1.10
2023-02-11T03:40:16.476Z,1.20
2023-02-11T03:42:52.165Z,1.20
2023-02-11T03:45:24.864Z,1.10
2023-02-11T03:47:59.461Z,1.20
2023-02-11T03:50:32.261Z,1.10
2023-02-11T03:53:04.692Z,1.10
2023-02-11T03:55:39.492Z,1.10
2023-02-11T03:58:08.519Z,1.10
2023-02-11T04:00:41.381Z,1.10
2023-02-11T04:03:11.819Z,1.10
2023-02-11T04:05:41.404Z,1.00
2023-02-11T04:08:12.158Z,1.00
2023-02-11T04:10:41.029Z,1.00
2023-02-11T04:13:09.931Z,1.00
2023-02-11T04:15:38.784Z,1.00
2023-02-11T04:18:07.586Z,1.00
2023-02-11T04:20:36.364Z,1.00
2023-02-11T04:23:05.172Z,0.90
2023-02-11T04:25:35.486Z,0.90
2023-02-11T04:28:04.516Z,0.90
2023-02-11T04:30:33.316Z,0.90
2023-02-11T04:33:02.092Z,0.80
2023-02-11T04:35:30.954Z,0.80
2023-02-11T04:37:59.751Z,0.90
2023-02-11T04:40:28.664Z,0.90
2023-02-11T04:42:59.082Z,0.90
2023-02-11T04:45:27.963Z,0.90
2023-02-11T04:47:56.728Z,0.90
2023-02-11T04:50:25.726Z,0.90
2023-02-11T04:52:54.511Z,0.90
2023-02-11T04:55:23.310Z,0.90
2023-02-11T04:57:52.237Z,0.90
2023-02-11T05:00:23.084Z,0.90
2023-02-11T05:02:52.263Z,0.90
2023-02-11T05:05:21.225Z,0.90
2023-02-11T05:07:50.284Z,0.80
2023-02-11T05:10:19.259Z,0.80
2023-02-11T05:12:50.332Z,0.80
2023-02-11T05:15:19.357Z,0.70
2023-02-11T05:17:49.582Z,0.70
2023-02-11T05:20:18.902Z,0.80
2023-02-11T05:22:47.809Z,0.80
2023-02-11T05:25:16.684Z,0.80
2023-02-11T05:27:45.412Z,0.90
2023-02-11T05:30:14.928Z,0.90
2023-02-11T05:32:43.772Z,0.90
2023-02-11T05:35:13.977Z,0.80
2023-02-11T05:37:42.769Z,0.90
2023-02-11T05:40:13.000Z,0.90
2023-02-11T05:42:41.824Z,0.90
2023-02-11T05:45:11.330Z,0.90
2023-02-11T05:47:40.140Z,0.80
2023-02-11T05:50:09.578Z,0.80
2023-02-11T05:52:39.789Z,0.80
2023-02-11T05:55:09.329Z,0.70
2023-02-11T05:57:38.257Z,0.70
2023-02-11T06:00:08.849Z,0.70
2023-02-11T06:02:37.736Z,0.70
2023-02-11T06:05:06.978Z,0.80
2023-02-11T06:07:35.746Z,0.80
2023-02-11T06:10:06.876Z,0.80
2023-02-11T06:12:35.823Z,0.80
2023-02-11T06:15:05.132Z,0.80
2023-02-11T06:17:34.349Z,0.90
2023-02-11T06:20:04.165Z,0.90
2023-02-11T06:22:34.577Z,0.90
2023-02-11T06:25:05.521Z,0.90
2023-02-11T06:27:34.353Z,0.90
2023-02-11T06:30:03.196Z,0.90
2023-02-11T06:32:47.351Z,0.90
2023-02-11T06:35:16.682Z,0.90
2023-02-11T06:37:45.591Z,0.90
2023-02-11T06:40:15.914Z,0.90
2023-02-11T06:42:44.704Z,0.90
2023-02-11T06:45:14.205Z,1.00
2023-02-11T06:47:43.299Z,1.10
2023-02-11T06:50:15.477Z,1.10
2023-02-11T06:52:44.346Z,1.20
2023-02-11T06:55:14.517Z,1.20
2023-02-11T06:57:43.435Z,1.30
2023-02-11T07:00:14.270Z,1.40
2023-02-11T07:02:43.070Z,1.50
2023-02-11T07:05:12.220Z,1.60
2023-02-11T07:07:40.950Z,1.70
2023-02-11T07:10:10.332Z,1.80
2023-02-11T07:12:40.700Z,1.90
2023-02-11T07:15:10.325Z,2.10
2023-02-11T07:17:39.154Z,2.20
2023-02-11T07:20:09.360Z,2.40
2023-02-11T07:22:38.193Z,2.40
2023-02-11T07:25:08.073Z,2.60
2023-02-11T07:27:37.044Z,2.70
2023-02-11T07:30:08.713Z,2.80
2023-02-11T07:32:37.874Z,2.90
2023-02-11T07:35:07.673Z,3.10
2023-02-11T07:37:37.311Z,3.20
2023-02-11T07:40:07.710Z,3.40
2023-02-11T07:42:36.947Z,3.70
2023-02-11T07:45:08.568Z,3.90
2023-02-11T07:47:38.284Z,4.10
2023-02-11T07:50:08.644Z,4.20
2023-02-11T07:52:37.523Z,4.30
2023-02-11T07:55:07.344Z,4.20
2023-02-11T07:57:36.118Z,4.30
2023-02-11T08:00:07.761Z,4.40
2023-02-11T08:02:36.574Z,4.40
2023-02-11T08:05:05.624Z,4.30
2023-02-11T08:07:34.452Z,4.30
2023-02-11T08:10:03.265Z,4.30
2023-02-11T08:12:32.494Z,4.20
2023-02-11T08:15:01.277Z,4.20
2023-02-11T08:17:32.850Z,4.20
2023-02-11T08:20:01.629Z,4.20
2023-02-11T08:22:32.888Z,4.30
2023-02-11T08:25:01.980Z,4.40
2023-02-11T08:27:30.868Z,4.40
2023-02-11T08:30:00.442Z,4.50
2023-02-11T08:32:29.368Z,4.50
2023-02-11T08:34:59.551Z,4.60
2023-02-11T08:37:28.375Z,4.60
2023-02-11T08:39:57.220Z,4.70
2023-02-11T08:42:26.014Z,4.70
2023-02-11T08:44:54.765Z,4.70
2023-02-11T08:47:23.513Z,4.70
2023-02-11T08:49:52.334Z,4.70
2023-02-11T08:52:22.561Z,4.70
2023-02-11T08:54:51.344Z,4.70
2023-02-11T08:57:20.257Z,4.70
2023-02-11T08:59:49.066Z,4.80
2023-02-11T09:02:18.070Z,4.70
2023-02-11T09:04:46.881Z,4.80
2023-02-11T09:07:15.807Z,4.80
2023-02-11T09:09:45.969Z,4.80
2023-02-11T09:12:14.753Z,4.80
2023-02-11T09:14:43.647Z,4.80
2023-02-11T09:17:12.447Z,4.80
2023-02-11T09:19:41.291Z,4.90
2023-02-11T09:22:10.275Z,5.10
2023-02-11T09:24:39.102Z,5.50
2023-02-11T09:27:09.713Z,6.10
2023-02-11T09:29:38.523Z,6.70
2023-02-11T09:32:09.828Z,7.20
2023-02-11T09:34:38.941Z,7.60
2023-02-11T09:37:07.719Z,7.80
2023-02-11T09:39:36.658Z,7.90
2023-02-11T09:42:38.560Z,8.00
2023-02-11T09:45:17.755Z,8.00
2023-02-11T09:47:52.303Z,8.00
2023-02-11T09:50:29.181Z,8.00
2023-02-11T09:53:04.158Z,8.00
2023-02-11T09:55:38.119Z,8.10
2023-02-11T09:58:16.076Z,8.10
2023-02-11T10:00:50.961Z,8.30
2023-02-11T10:03:58.650Z,8.70
2023-02-11T10:06:42.918Z,9.00
2023-02-11T10:09:37.157Z,9.30
2023-02-11T10:12:28.677Z,9.40
2023-02-11T10:15:25.899Z,9.40
2023-02-11T10:18:17.338Z,9.60
2023-02-11T10:21:02.503Z,9.80
2023-02-11T10:23:38.075Z,10.30
2023-02-11T10:26:16.030Z,10.60
2023-02-11T10:28:49.685Z,10.50
2023-02-11T10:31:26.974Z,10.50
2023-02-11T10:34:03.307Z,10.50
2023-02-11T10:36:36.971Z,10.50
2023-02-11T10:39:14.570Z,10.50
2023-02-11T10:41:48.085Z,10.80
2023-02-11T10:44:27.583Z,11.00
2023-02-11T10:47:01.519Z,11.10
2023-02-11T10:49:40.703Z,11.20
2023-02-11T10:52:21.767Z,11.30
2023-02-11T10:55:15.821Z,11.40
2023-02-11T10:57:54.022Z,11.50
2023-02-11T11:00:38.122Z,11.80
2023-02-11T11:03:21.099Z,11.90
2023-02-11T11:05:52.939Z,11.70
2023-02-11T11:08:22.314Z,11.30
2023-02-11T11:11:04.911Z,11.10
2023-02-11T11:13:36.342Z,11.00
2023-02-11T11:16:23.169Z,11.10
2023-02-11T11:19:15.265Z,11.30
2023-02-11T11:21:47.211Z,11.30
2023-02-11T11:24:22.460Z,11.50
2023-02-11T11:26:55.094Z,11.60
2023-02-11T11:29:34.370Z,11.60
2023-02-11T11:32:08.566Z,11.70
2023-02-11T11:34:42.384Z,11.70
2023-02-11T11:37:22.375Z,11.50
2023-02-11T11:40:00.372Z,11.60
2023-02-11T11:42:32.518Z,11.80
2023-02-11T11:45:04.872Z,11.90
2023-02-11T11:47:42.672Z,12.10
2023-02-11T11:50:29.025Z,11.90
2023-02-11T11:53:06.085Z,11.60
2023-02-11T11:55:43.022Z,11.40
2023-02-11T11:58:18.554Z,11.30
2023-02-11T12:00:57.701Z,11.10
2023-02-11T12:04:11.890Z,11.00
2023-02-11T12:07:01.658Z,10.90
2023-02-11T12:09:44.614Z,11.00
2023-02-11T12:12:38.884Z,11.10
2023-02-11T12:15:28.983Z,11.10
2023-02-11T12:18:22.103Z,11.10
2023-02-11T12:21:07.792Z,11.00
2023-02-11T12:23:59.847Z,11.00
2023-02-11T12:26:40.586Z,10.90
2023-02-11T12:29:25.645Z,10.70
2023-02-11T12:32:16.336Z,10.60
2023-02-11T12:35:18.989Z,10.60
2023-02-11T12:38:25.236Z,10.60
2023-02-11T12:41:16.465Z,10.50
2023-02-11T12:43:45.520Z,10.40
2023-02-11T12:46:37.585Z,10.30
2023-02-11T12:49:39.078Z,10.40
2023-02-11T12:52:37.591Z,10.40
2023-02-11T12:55:20.583Z,10.50
2023-02-11T12:57:54.275Z,10.50
2023-02-11T13:00:28.042Z,10.50
2023-02-11T13:03:04.131Z,10.30
2023-02-11T13:05:41.653Z,10.10
2023-02-11T13:08:17.342Z,10.00
2023-02-11T13:10:54.207Z,10.00
2023-02-11T13:13:36.954Z,9.90
2023-02-11T13:16:09.319Z,9.90
2023-02-11T13:18:52.117Z,9.80
2023-02-11T13:21:44.233Z,9.80
2023-02-11T13:24:26.605Z,9.80
2023-02-11T13:27:09.604Z,9.80
2023-02-11T13:30:20.034Z,9.70
2023-02-11T13:33:21.590Z,9.70
2023-02-11T13:36:13.602Z,9.70
2023-02-11T13:38:42.936Z,9.70
2023-02-11T13:41:22.390Z,9.80
2023-02-11T13:44:02.625Z,9.80
2023-02-11T13:46:59.726Z,9.80
2023-02-11T13:49:36.119Z,9.80
2023-02-11T13:52:17.594Z,9.80
2023-02-11T13:54:52.784Z,9.70
2023-02-11T13:57:34.034Z,9.80
2023-02-11T14:00:41.483Z,9.70
2023-02-11T14:04:36.810Z,9.80
2023-02-11T14:07:46.565Z,10.00
2023-02-11T14:10:52.201Z,10.10
2023-02-11T14:13:26.452Z,10.10
2023-02-11T14:16:10.987Z,10.10
2023-02-11T14:19:03.278Z,9.90
2023-02-11T14:21:43.707Z,9.80
2023-02-11T14:24:51.111Z,9.70
2023-02-11T14:27:38.129Z,9.60
2023-02-11T14:30:33.461Z,9.60
2023-02-11T14:33:50.754Z,9.50
2023-02-11T14:36:46.552Z,9.50
2023-02-11T14:39:31.804Z,9.40
2023-02-11T14:42:04.785Z,9.40
2023-02-11T14:44:36.363Z,9.40
2023-02-11T14:47:05.372Z,9.40
2023-02-11T14:49:39.300Z,9.30
2023-02-11T14:52:26.271Z,9.10
2023-02-11T14:55:20.195Z,9.20
2023-02-11T14:57:50.992Z,9.20
2023-02-11T15:00:23.249Z,9.20
2023-02-11T15:02:52.062Z,9.20
2023-02-11T15:05:26.210Z,9.10
2023-02-11T15:08:01.359Z,9.10
2023-02-11T15:10:36.394Z,9.00
2023-02-11T15:13:06.525Z,8.90
2023-02-11T15:15:37.866Z,9.00
2023-02-11T15:18:09.632Z,8.90
2023-02-11T15:20:38.681Z,8.80
2023-02-11T15:23:21.534Z,8.70
2023-02-11T15:25:53.160Z,8.70
2023-02-11T15:28:26.695Z,8.70
2023-02-11T15:31:03.330Z,8.60
2023-02-11T15:33:33.259Z,8.60
2023-02-11T15:36:04.569Z,8.50
2023-02-11T15:38:35.122Z,8.50
2023-02-11T15:41:07.570Z,8.40
2023-02-11T15:43:45.431Z,8.40
2023-02-11T15:46:20.225Z,8.40
2023-02-11T15:48:51.829Z,8.30
2023-02-11T15:51:25.439Z,8.30
2023-02-11T15:53:59.153Z,8.20
2023-02-11T15:56:33.106Z,8.20
2023-02-11T15:59:15.695Z,8.20
2023-02-11T16:01:45.674Z,8.20
2023-02-11T16:04:23.671Z,8.10
2023-02-11T16:06:54.460Z,8.10
2023-02-11T16:09:42.523Z,8.10
2023-02-11T16:12:28.032Z,8.10
2023-02-11T16:14:59.992Z,8.10
2023-02-11T16:17:31.135Z,8.00
2023-02-11T16:20:00.151Z,7.90
2023-02-11T16:22:35.516Z,7.90
2023-02-11T16:25:07.347Z,7.90
2023-02-11T16:27:42.434Z,7.90
2023-02-11T16:30:29.851Z,7.90
2023-02-11T16:32:58.689Z,7.90
2023-02-11T16:35:27.482Z,7.80
2023-02-11T16:37:56.292Z,7.80
2023-02-11T16:40:26.446Z,7.70
2023-02-11T16:42:55.996Z,7.70
2023-02-11T16:45:24.735Z,7.70
2023-02-11T16:47:53.557Z,7.70
2023-02-11T16:50:26.081Z,7.60
2023-02-11T16:52:55.244Z,7.50
2023-02-11T16:55:25.936Z,7.40
2023-02-11T16:57:54.842Z,7.40
2023-02-11T17:00:25.415Z,7.40
2023-02-11T17:02:54.427Z,7.30
2023-02-11T17:05:26.077Z,7.30
2023-02-11T17:07:55.425Z,7.20
2023-02-11T17:10:27.013Z,7.20
2023-02-11T17:12:55.919Z,7.20
2023-02-11T17:15:24.936Z,7.10
2023-02-11T17:17:53.752Z,7.10
2023-02-11T17:20:23.166Z,7.00
2023-02-11T17:22:52.818Z,7.10
2023-02-11T17:25:23.565Z,7.10
2023-02-11T17:27:53.836Z,7.00
2023-02-11T17:30:23.383Z,6.90
2023-02-11T17:32:52.307Z,6.90
2023-02-11T17:35:21.632Z,6.80
2023-02-11T17:37:50.531Z,6.80
2023-02-11T17:40:20.746Z,6.80
2023-02-11T17:42:49.667Z,6.70
2023-02-11T17:45:22.250Z,6.60
2023-02-11T17:47:52.363Z,6.60
2023-02-11T17:50:21.507Z,6.50
2023-02-11T17:52:50.416Z,6.50
2023-02-11T17:55:19.858Z,6.50
2023-02-11T17:57:48.617Z,6.50
2023-02-11T18:00:19.365Z,6.40
2023-02-11T18:02:49.783Z,6.50
2023-02-11T18:05:18.902Z,6.40
2023-02-11T18:07:48.832Z,6.40
2023-02-11T18:10:17.942Z,6.40
2023-02-11T18:12:50.057Z,6.40
2023-02-11T18:15:19.159Z,6.40
2023-02-11T18:17:49.594Z,6.40
2023-02-11T18:20:18.597Z,6.30
2023-02-11T18:22:49.450Z,6.30
2023-02-11T18:25:18.914Z,6.30
2023-02-11T18:27:47.944Z,6.30
2023-02-11T18:30:19.921Z,6.30
2023-02-11T18:32:55.950Z,6.30
2023-02-11T18:35:27.187Z,6.20
2023-02-11T18:37:56.069Z,6.20
2023-02-11T18:40:25.248Z,6.20
2023-02-11T18:42:54.314Z,6.20
2023-02-11T18:45:24.235Z,6.20
2023-02-11T18:47:54.609Z,6.10
2023-02-11T18:50:26.200Z,6.20
2023-02-11T18:52:55.266Z,6.20
2023-02-11T18:55:26.012Z,6.20
2023-02-11T18:57:55.233Z,6.30
2023-02-11T19:00:25.731Z,6.30
2023-02-11T19:02:56.046Z,6.40
2023-02-11T19:05:26.172Z,6.40
2023-02-11T19:07:55.078Z,6.40
2023-02-11T19:10:24.671Z,6.40
2023-02-11T19:12:56.451Z,6.40
2023-02-11T19:15:25.482Z,6.50
2023-02-11T19:17:56.140Z,6.50
2023-02-11T19:20:25.051Z,6.50
2023-02-11T19:22:54.105Z,6.50
2023-02-11T19:25:22.852Z,6.60
2023-02-11T19:27:52.244Z,6.50
2023-02-11T19:30:21.573Z,6.60
2023-02-11T19:32:52.721Z,6.60
2023-02-11T19:35:23.300Z,6.60
2023-02-11T19:37:52.269Z,6.60
2023-02-11T19:40:22.356Z,6.60
2023-02-11T19:42:51.315Z,6.60
2023-02-11T19:45:20.199Z,6.60
2023-02-11T19:47:49.009Z,6.50
2023-02-11T19:50:18.124Z,6.60
2023-02-11T19:52:48.357Z,6.60
2023-02-11T19:55:17.273Z,6.60
2023-02-11T19:57:46.440Z,6.50
2023-02-11T20:00:16.679Z,6.60
2023-02-11T20:02:47.205Z,6.60
2023-02-11T20:05:18.260Z,6.60
2023-02-11T20:07:48.442Z,6.60
2023-02-11T20:10:17.639Z,6.70
2023-02-11T20:12:46.654Z,6.70
2023-02-11T20:15:15.749Z,6.70
2023-02-11T20:17:47.491Z,6.60
2023-02-11T20:20:18.548Z,6.60
2023-02-11T20:22:49.069Z,6.60
2023-02-11T20:25:18.039Z,6.60
2023-02-11T20:27:46.812Z,6.60
2023-02-11T20:30:17.047Z,6.60
2023-02-11T20:32:45.787Z,6.60
2023-02-11T20:35:14.604Z,6.50
2023-02-11T20:37:44.252Z,6.50
2023-02-11T20:40:15.077Z,6.50
2023-02-11T20:42:43.849Z,6.50
2023-02-11T20:45:12.692Z,6.40
2023-02-11T20:47:42.487Z,6.40
2023-02-11T20:50:12.637Z,6.40
2023-02-11T20:52:41.364Z,6.40
2023-02-11T20:55:10.265Z,6.40
2023-02-11T20:57:40.502Z,6.40
2023-02-11T21:00:13.160Z,6.40
2023-02-11T21:02:41.916Z,6.40
2023-02-11T21:05:11.637Z,6.30
2023-02-11T21:07:40.387Z,6.30
2023-02-11T21:10:10.508Z,6.30
2023-02-11T21:12:40.709Z,6.20
2023-02-11T21:15:12.204Z,6.20
2023-02-11T21:17:41.000Z,6.30
2023-02-11T21:20:11.318Z,6.30
2023-02-11T21:22:40.121Z,6.30
2023-02-11T21:25:09.401Z,6.30
2023-02-11T21:27:39.841Z,6.40
2023-02-11T21:30:11.544Z,6.30
2023-02-11T21:32:40.262Z,6.30
2023-02-11T21:35:10.247Z,6.20
2023-02-11T21:37:39.051Z,6.20
2023-02-11T21:40:09.748Z,6.20
2023-02-11T21:42:40.043Z,6.20
2023-02-11T21:45:10.070Z,6.20
2023-02-11T21:47:38.999Z,6.10
2023-02-11T21:50:08.987Z,6.20
2023-02-11T21:52:37.784Z,6.10
2023-02-11T21:55:07.556Z,6.10
2023-02-11T21:57:36.444Z,6.10
2023-02-11T22:00:09.244Z,6.00
2023-02-11T22:02:40.054Z,6.10
2023-02-11T22:05:08.990Z,6.00
2023-02-11T22:07:37.938Z,6.00
2023-02-11T22:10:07.934Z,5.90
2023-02-11T22:12:36.663Z,5.90
2023-02-11T22:15:08.123Z,5.90
2023-02-11T22:17:36.956Z,5.90
2023-02-11T22:20:07.100Z,5.90
2023-02-11T22:22:35.919Z,6.00
2023-02-11T22:25:04.938Z,6.00
2023-02-11T22:27:33.884Z,6.00
2023-02-11T22:30:02.732Z,6.00
2023-02-11T22:32:32.880Z,6.00
2023-02-11T22:35:01.811Z,6.10
2023-02-11T22:37:30.585Z,6.00
2023-02-11T22:39:59.290Z,6.10
2023-02-11T22:42:28.157Z,6.10
2023-02-11T22:44:56.978Z,6.20
2023-02-11T22:47:25.759Z,6.20
2023-02-11T22:49:55.865Z,6.20
2023-02-11T22:52:24.757Z,6.30
2023-02-11T22:54:55.215Z,6.30
2023-02-11T22:57:23.939Z,6.20
2023-02-11T22:59:52.729Z,6.30
2023-02-11T23:02:21.757Z,6.30
2023-02-11T23:04:50.627Z,6.30
2023-02-11T23:07:20.812Z,6.30
2023-02-11T23:09:49.529Z,6.30
2023-02-11T23:12:18.426Z,6.30
2023-02-11T23:14:47.394Z,6.30
2023-02-11T23:17:16.265Z,6.30
2023-02-11T23:19:45.232Z,6.30
2023-02-11T23:22:14.069Z,6.30
2023-02-11T23:24:44.318Z,6.30
2023-02-11T23:27:13.633Z,6.30
2023-02-11T23:29:42.460Z,6.30
2023-02-11T23:32:11.253Z,6.30
2023-02-11T23:34:40.055Z,6.30
2023-02-11T23:37:08.822Z,6.40
2023-02-11T23:39:37.784Z,6.40
2023-02-11T23:42:08.148Z,6.40
2023-02-11T23:44:36.930Z,6.40
2023-02-11T23:47:06.632Z,6.40
2023-02-11T23:49:35.503Z,6.40
2023-02-11T23:52:04.289Z,6.40
2023-02-11T23:54:33.236Z,6.30
2023-02-11T23:57:02.116Z,6.30
2023-02-11T23:59:32.297Z,6.40
